Thunder radar more information blitzortung!


Radar de pluja more information rain snow radar


Visita la nostra xarxa de llocs de meteo:

Template documentation
and downloads

And another site



No particular awareness of the weather is required.    There are no Weather-warnings

Pagina Historial Weather Underground text

Diari Resum Juny 8, 2017 Unitats:  Tant    Imperial   Mètric
« Previous Dia
SegĂźent Dia »
Diari Setmana Mensual Anual Personalitzada
  Maxima: Minima: Media:
Temperatura: 84.2 °F /  29.0 °C 62.4 °F /  16.9 °C 74.5 °F /  23.6 °C
Punt de rosada: 63.9 °F /  17.7 °C 56.1 °F /  13.4 °C 59.9 °F /  15.5 °C
Humitat: 84 % 49 % 62 %
Wind Speed: 12.7 mph /  20.4 km/h - 5.2 mph /  8.4 km/h
RĂ fegues de vent: 12.7 mph /  20.4 km/h - -
Vent:- - SW
Pression baro: 30.1 in /  1019.9 hPa 29.9 in /  1013.8 hPa -
Precipitacions: 0 in /  0.0 mm    
Historical Graphs
 
 
Dades de taula per Juny 8, 2017
Temps Temperatura Punt de rosada Pression baro Vent Wind Speed RĂ fegues de vent Humitat Rainfall Rate (Hourly)
00:03 64 °F /  17.8 °C 56.7 °F /  13.7 °C 30.1 in /  1019.9 hPa SW 2.3 mph /  3.7 km/h 2.3 mph /  3.7 km/h 77 % 0 in /  0.0 mm
01:45 64 °F /  17.8 °C 58.1 °F /  14.5 °C 30.1 in /  1019.9 hPa WSW 1 mph /  1.6 km/h 2 mph /  3.2 km/h 81 % 0 in /  0.0 mm
01:55 63.9 °F /  17.7 °C 57.9 °F /  14.4 °C 30.1 in /  1019.9 hPa SW 1 mph /  1.6 km/h 2 mph /  3.2 km/h 81 % 0 in /  0.0 mm
02:05 64 °F /  17.8 °C 58.5 °F /  14.7 °C 30.1 in /  1019.9 hPa Calm   2 mph /  3.2 km/h 82 % 0 in /  0.0 mm
02:15 64 °F /  17.8 °C 58.5 °F /  14.7 °C 30.1 in /  1019.9 hPa Calm     82 % 0 in /  0.0 mm
02:25 64.4 °F /  18.0 °C 58.8 °F /  14.9 °C 30.1 in /  1019.9 hPa Calm     82 % 0 in /  0.0 mm
02:35 64.6 °F /  18.1 °C 59 °F /  15.0 °C 30.1 in /  1019.9 hPa WSW 1 mph /  1.6 km/h 2 mph /  3.2 km/h 82 % 0 in /  0.0 mm
02:45 64.8 °F /  18.2 °C 58.8 °F /  14.9 °C 30.1 in /  1019.9 hPa Calm   2 mph /  3.2 km/h 81 % 0 in /  0.0 mm
02:55 65.1 °F /  18.4 °C 58.8 °F /  14.9 °C 30.1 in /  1019.9 hPa WSW 1 mph /  1.6 km/h 2 mph /  3.2 km/h 80 % 0 in /  0.0 mm
03:05 65.7 °F /  18.7 °C 59 °F /  15.0 °C 30.1 in /  1019.9 hPa SW 1 mph /  1.6 km/h 2 mph /  3.2 km/h 79 % 0 in /  0.0 mm
03:15 66.6 °F /  19.2 °C 59.2 °F /  15.1 °C 30.1 in /  1019.9 hPa WSW 1 mph /  1.6 km/h 3 mph /  4.8 km/h 77 % 0 in /  0.0 mm
03:25 67.1 °F /  19.5 °C 59.4 °F /  15.2 °C 30.1 in /  1019.9 hPa West 2 mph /  3.2 km/h 3 mph /  4.8 km/h 76 % 0 in /  0.0 mm
03:35 66.9 °F /  19.4 °C 58.6 °F /  14.8 °C 30.1 in /  1019.9 hPa WSW 1 mph /  1.6 km/h 3 mph /  4.8 km/h 75 % 0 in /  0.0 mm
03:45 68.4 °F /  20.2 °C 59.4 °F /  15.2 °C 30.1 in /  1019.9 hPa SW 1 mph /  1.6 km/h 2 mph /  3.2 km/h 73 % 0 in /  0.0 mm
03:55 69.8 °F /  21.0 °C 60.4 °F /  15.8 °C 30.1 in /  1018.8 hPa WSW 1 mph /  1.6 km/h 2 mph /  3.2 km/h 72 % 0 in /  0.0 mm
04:05 69.3 °F /  20.7 °C 59.2 °F /  15.1 °C 30.1 in /  1018.8 hPa NE 1 mph /  1.6 km/h 4 mph /  6.4 km/h 70 % 0 in /  0.0 mm
04:15 70 °F /  21.1 °C 59.7 °F /  15.4 °C 30.1 in /  1018.8 hPa NNE 1 mph /  1.6 km/h 4 mph /  6.4 km/h 70 % 0 in /  0.0 mm
04:25 71.2 °F /  21.8 °C 60.1 °F /  15.6 °C 30.1 in /  1019.9 hPa NW 2 mph /  3.2 km/h 3 mph /  4.8 km/h 68 % 0 in /  0.0 mm
04:35 72.3 °F /  22.4 °C 60.3 °F /  15.7 °C 30.1 in /  1019.9 hPa NNW 1 mph /  1.6 km/h 3 mph /  4.8 km/h 66 % 0 in /  0.0 mm
04:45 72.9 °F /  22.7 °C 60.8 °F /  16.0 °C 30.1 in /  1019.9 hPa WNW 1 mph /  1.6 km/h 4 mph /  6.4 km/h 66 % 0 in /  0.0 mm
04:55 72 °F /  22.2 °C 59.5 °F /  15.3 °C 30.1 in /  1018.8 hPa WSW 3 mph /  4.8 km/h 4 mph /  6.4 km/h 65 % 0 in /  0.0 mm
05:05 73 °F /  22.8 °C 60.6 °F /  15.9 °C 30.1 in /  1018.8 hPa WSW 2 mph /  3.2 km/h 6 mph /  9.7 km/h 65 % 0 in /  0.0 mm
05:15 73.8 °F /  23.2 °C 60.8 °F /  16.0 °C 30.1 in /  1018.8 hPa SW 3 mph /  4.8 km/h 5 mph /  8.0 km/h 64 % 0 in /  0.0 mm
05:25 73.4 °F /  23.0 °C 60.4 °F /  15.8 °C 30.1 in /  1019.9 hPa SW 3 mph /  4.8 km/h 7 mph /  11.3 km/h 64 % 0 in /  0.0 mm
05:35 73.8 °F /  23.2 °C 60.4 °F /  15.8 °C 30.1 in /  1019.9 hPa SW 2 mph /  3.2 km/h 8 mph /  12.9 km/h 63 % 0 in /  0.0 mm
05:45 74.1 °F /  23.4 °C 60.6 °F /  15.9 °C 30.1 in /  1019.9 hPa SSW 3 mph /  4.8 km/h 7 mph /  11.3 km/h 63 % 0 in /  0.0 mm
10:50 74.5 °F /  23.6 °C 61.2 °F /  16.2 °C 30.1 in /  1018.8 hPa SW 5.8 mph /  9.3 km/h 5.8 mph /  9.3 km/h 63 % 0 in /  0.0 mm
10:55 73.8 °F /  23.2 °C 60.4 °F /  15.8 °C 30.1 in /  1018.8 hPa SW 6.9 mph /  11.1 km/h 6.9 mph /  11.1 km/h 63 % 0 in /  0.0 mm
11:00 74.5 °F /  23.6 °C 61.5 °F /  16.4 °C 30.1 in /  1018.8 hPa SSW 3.5 mph /  5.6 km/h 3.5 mph /  5.6 km/h 64 % 0 in /  0.0 mm
11:05 75 °F /  23.9 °C 61.5 °F /  16.4 °C 30.1 in /  1018.8 hPa SSW 2.3 mph /  3.7 km/h 2.3 mph /  3.7 km/h 63 % 0 in /  0.0 mm
11:10 75 °F /  23.9 °C 61.2 °F /  16.2 °C 30.1 in /  1018.8 hPa SSW 5.9 mph /  9.5 km/h 5.9 mph /  9.5 km/h 62 % 0 in /  0.0 mm
11:15 75.9 °F /  24.4 °C 62.1 °F /  16.7 °C 30.1 in /  1018.8 hPa SSW 4.6 mph /  7.4 km/h 4.6 mph /  7.4 km/h 62 % 0 in /  0.0 mm
11:20 75.7 °F /  24.3 °C 61.9 °F /  16.6 °C 30.1 in /  1018.8 hPa SW 9.2 mph /  14.8 km/h 9.2 mph /  14.8 km/h 62 % 0 in /  0.0 mm
11:25 76.5 °F /  24.7 °C 62.1 °F /  16.7 °C 30.1 in /  1018.8 hPa WSW 5.8 mph /  9.3 km/h 5.8 mph /  9.3 km/h 61 % 0 in /  0.0 mm
11:30 77.2 °F /  25.1 °C 61.7 °F /  16.5 °C 30.1 in /  1018.8 hPa SSW 6.9 mph /  11.1 km/h 6.9 mph /  11.1 km/h 59 % 0 in /  0.0 mm
11:35 76.6 °F /  24.8 °C 61.7 °F /  16.5 °C 30.1 in /  1018.8 hPa WSW 9.2 mph /  14.8 km/h 9.2 mph /  14.8 km/h 60 % 0 in /  0.0 mm
11:40 77.2 °F /  25.1 °C 61.7 °F /  16.5 °C 30.1 in /  1018.8 hPa SW 3.5 mph /  5.6 km/h 3.5 mph /  5.6 km/h 59 % 0 in /  0.0 mm
11:45 78.1 °F /  25.6 °C 62.6 °F /  17.0 °C 30.1 in /  1018.8 hPa SW 5.8 mph /  9.3 km/h 5.8 mph /  9.3 km/h 59 % 0 in /  0.0 mm
11:50 78.4 °F /  25.8 °C 62.4 °F /  16.9 °C 30.1 in /  1018.8 hPa SW 5.8 mph /  9.3 km/h 5.8 mph /  9.3 km/h 58 % 0 in /  0.0 mm
11:55 78.1 °F /  25.6 °C 62.1 °F /  16.7 °C 30.1 in /  1018.8 hPa SW 7.8 mph /  12.6 km/h 7.8 mph /  12.6 km/h 58 % 0 in /  0.0 mm
12:00 78.6 °F /  25.9 °C 62.1 °F /  16.7 °C 30.1 in /  1018.8 hPa SSW 5.8 mph /  9.3 km/h 5.8 mph /  9.3 km/h 57 % 0 in /  0.0 mm
12:05 78.3 °F /  25.7 °C 61.9 °F /  16.6 °C 30.1 in /  1018.8 hPa SSW 6.9 mph /  11.1 km/h 6.9 mph /  11.1 km/h 57 % 0 in /  0.0 mm
12:06 78.3 °F /  25.7 °C 61.9 °F /  16.6 °C 30.1 in /  1018.8 hPa SSW 8.1 mph /  13.0 km/h 8.1 mph /  13.0 km/h 57 % 0 in /  0.0 mm
12:11 78.8 °F /  26.0 °C 62.2 °F /  16.8 °C 30.1 in /  1018.8 hPa South 5.8 mph /  9.3 km/h 5.8 mph /  9.3 km/h 57 % 0 in /  0.0 mm
12:16 78.6 °F /  25.9 °C 62.1 °F /  16.7 °C 30.1 in /  1018.8 hPa WSW 5.4 mph /  8.7 km/h 5.4 mph /  8.7 km/h 57 % 0 in /  0.0 mm
12:18 78.8 °F /  26.0 °C 62.2 °F /  16.8 °C 30.1 in /  1018.8 hPa SSW 4.6 mph /  7.4 km/h 4.6 mph /  7.4 km/h 57 % 0 in /  0.0 mm
12:28 79.7 °F /  26.5 °C 62.1 °F /  16.7 °C 30.1 in /  1018.8 hPa SE 3.5 mph /  5.6 km/h 3.5 mph /  5.6 km/h 55 % 0 in /  0.0 mm
12:33 79.7 °F /  26.5 °C 62.1 °F /  16.7 °C 30.1 in /  1018.8 hPa South 3.5 mph /  5.6 km/h 3.5 mph /  5.6 km/h 55 % 0 in /  0.0 mm
12:38 80.4 °F /  26.9 °C 62.8 °F /  17.1 °C 30.1 in /  1018.8 hPa SW 3.5 mph /  5.6 km/h 3.5 mph /  5.6 km/h 55 % 0 in /  0.0 mm
12:43 79.5 °F /  26.4 °C 61.9 °F /  16.6 °C 30.1 in /  1018.8 hPa SW 5.8 mph /  9.3 km/h 5.8 mph /  9.3 km/h 55 % 0 in /  0.0 mm
12:48 78.6 °F /  25.9 °C 61.2 °F /  16.2 °C 30.1 in /  1018.8 hPa SW 6.9 mph /  11.1 km/h 6.9 mph /  11.1 km/h 55 % 0 in /  0.0 mm
12:53 78.8 °F /  26.0 °C 61.3 °F /  16.3 °C 30.1 in /  1018.8 hPa South 9.2 mph /  14.8 km/h 9.2 mph /  14.8 km/h 55 % 0 in /  0.0 mm
12:58 78.8 °F /  26.0 °C 61.3 °F /  16.3 °C 30.1 in /  1018.8 hPa SW 6.9 mph /  11.1 km/h 6.9 mph /  11.1 km/h 55 % 0 in /  0.0 mm
13:03 79.2 °F /  26.2 °C 61.5 °F /  16.4 °C 30.1 in /  1017.8 hPa WSW 8.1 mph /  13.0 km/h 8.1 mph /  13.0 km/h 55 % 0 in /  0.0 mm
13:08 79.5 °F /  26.4 °C 61.9 °F /  16.6 °C 30.1 in /  1017.8 hPa South 8.1 mph /  13.0 km/h 8.1 mph /  13.0 km/h 55 % 0 in /  0.0 mm
13:13 80.2 °F /  26.8 °C 62.1 °F /  16.7 °C 30.1 in /  1017.8 hPa SSW 5.6 mph /  9.0 km/h 5.6 mph /  9.0 km/h 54 % 0 in /  0.0 mm
13:18 81 °F /  27.2 °C 62.8 °F /  17.1 °C 30.1 in /  1017.8 hPa SSW 4.6 mph /  7.4 km/h 4.6 mph /  7.4 km/h 54 % 0 in /  0.0 mm
13:23 81.5 °F /  27.5 °C 62.8 °F /  17.1 °C 30.1 in /  1017.8 hPa SSE 4.6 mph /  7.4 km/h 4.6 mph /  7.4 km/h 53 % 0 in /  0.0 mm
13:28 81.1 °F /  27.3 °C 62.4 °F /  16.9 °C 30.1 in /  1017.8 hPa SW 8.1 mph /  13.0 km/h 8.1 mph /  13.0 km/h 53 % 0 in /  0.0 mm
13:33 80.8 °F /  27.1 °C 61.5 °F /  16.4 °C 30.1 in /  1018.8 hPa SSW 9.2 mph /  14.8 km/h 9.2 mph /  14.8 km/h 52 % 0 in /  0.0 mm
13:38 80.4 °F /  26.9 °C 61.7 °F /  16.5 °C 30.1 in /  1018.8 hPa SW 8.1 mph /  13.0 km/h 8.1 mph /  13.0 km/h 53 % 0 in /  0.0 mm
13:43 81 °F /  27.2 °C 61.2 °F /  16.2 °C 30.1 in /  1018.8 hPa South 4.6 mph /  7.4 km/h 4.6 mph /  7.4 km/h 51 % 0 in /  0.0 mm
13:48 82.2 °F /  27.9 °C 62.8 °F /  17.1 °C 30.1 in /  1017.8 hPa SW 4.9 mph /  7.9 km/h 4.9 mph /  7.9 km/h 52 % 0 in /  0.0 mm
13:53 81.5 °F /  27.5 °C 61.5 °F /  16.4 °C 30.1 in /  1017.8 hPa WSW 6.9 mph /  11.1 km/h 6.9 mph /  11.1 km/h 51 % 0 in /  0.0 mm
13:58 81.5 °F /  27.5 °C 62.2 °F /  16.8 °C 30.1 in /  1017.8 hPa SW 5.8 mph /  9.3 km/h 5.8 mph /  9.3 km/h 52 % 0 in /  0.0 mm
13:59 81.7 °F /  27.6 °C 61.9 °F /  16.6 °C 30.1 in /  1017.8 hPa South 7.1 mph /  11.4 km/h 7.1 mph /  11.4 km/h 51 % 0 in /  0.0 mm
14:04 81.5 °F /  27.5 °C 61.5 °F /  16.4 °C 30.1 in /  1017.8 hPa WSW 6.9 mph /  11.1 km/h 6.9 mph /  11.1 km/h 51 % 0 in /  0.0 mm
14:09 80.8 °F /  27.1 °C 61 °F /  16.1 °C 30.1 in /  1017.8 hPa SW 4.6 mph /  7.4 km/h 4.6 mph /  7.4 km/h 51 % 0 in /  0.0 mm
14:14 82.4 °F /  28.0 °C 62.4 °F /  16.9 °C 30.1 in /  1017.8 hPa SE 4.6 mph /  7.4 km/h 4.6 mph /  7.4 km/h 51 % 0 in /  0.0 mm
14:19 82.9 °F /  28.3 °C 63 °F /  17.2 °C 30.1 in /  1017.8 hPa SSW 5.8 mph /  9.3 km/h 5.8 mph /  9.3 km/h 51 % 0 in /  0.0 mm
14:24 82.2 °F /  27.9 °C 62.2 °F /  16.8 °C 30.1 in /  1017.8 hPa SSW 5.8 mph /  9.3 km/h 5.8 mph /  9.3 km/h 51 % 0 in /  0.0 mm
14:29 82.8 °F /  28.2 °C 62.8 °F /  17.1 °C 30.1 in /  1017.8 hPa SSW 6.4 mph /  10.3 km/h 6.4 mph /  10.3 km/h 51 % 0 in /  0.0 mm
14:34 82.6 °F /  28.1 °C 62.6 °F /  17.0 °C 30.1 in /  1017.8 hPa SSE 6.9 mph /  11.1 km/h 6.9 mph /  11.1 km/h 51 % 0 in /  0.0 mm
14:39 81.7 °F /  27.6 °C 61.9 °F /  16.6 °C 30.1 in /  1017.8 hPa South 6.9 mph /  11.1 km/h 6.9 mph /  11.1 km/h 51 % 0 in /  0.0 mm
14:44 81.5 °F /  27.5 °C 61.5 °F /  16.4 °C 30.1 in /  1017.8 hPa South 10.4 mph /  16.7 km/h 10.4 mph /  16.7 km/h 51 % 0 in /  0.0 mm
14:49 82 °F /  27.8 °C 62.1 °F /  16.7 °C 30 in /  1016.8 hPa SW 7.6 mph /  12.2 km/h 7.6 mph /  12.2 km/h 51 % 0 in /  0.0 mm
14:54 81.5 °F /  27.5 °C 61.2 °F /  16.2 °C 30 in /  1016.8 hPa SW 8.1 mph /  13.0 km/h 8.1 mph /  13.0 km/h 50 % 0 in /  0.0 mm
14:59 81.9 °F /  27.7 °C 62.1 °F /  16.7 °C 30 in /  1016.8 hPa WSW 8.1 mph /  13.0 km/h 8.1 mph /  13.0 km/h 51 % 0 in /  0.0 mm
15:04 82.6 °F /  28.1 °C 62.1 °F /  16.7 °C 30.1 in /  1017.8 hPa South 5.8 mph /  9.3 km/h 5.8 mph /  9.3 km/h 50 % 0 in /  0.0 mm
15:09 82.6 °F /  28.1 °C 62.1 °F /  16.7 °C 30.1 in /  1017.8 hPa SW 8.1 mph /  13.0 km/h 8.1 mph /  13.0 km/h 50 % 0 in /  0.0 mm
15:14 82.4 °F /  28.0 °C 61.9 °F /  16.6 °C 30.1 in /  1017.8 hPa WSW 6.2 mph /  10.0 km/h 6.2 mph /  10.0 km/h 50 % 0 in /  0.0 mm
15:19 82.9 °F /  28.3 °C 63 °F /  17.2 °C 30 in /  1016.8 hPa WSW 5.8 mph /  9.3 km/h 5.8 mph /  9.3 km/h 51 % 0 in /  0.0 mm
15:24 83.5 °F /  28.6 °C 63 °F /  17.2 °C 30 in /  1016.8 hPa SW 6 mph /  9.7 km/h 6 mph /  9.7 km/h 50 % 0 in /  0.0 mm
15:29 83.8 °F /  28.8 °C 63.9 °F /  17.7 °C 30 in /  1016.8 hPa SSW 8.1 mph /  13.0 km/h 8.1 mph /  13.0 km/h 51 % 0 in /  0.0 mm
15:34 83.8 °F /  28.8 °C 63.9 °F /  17.7 °C 30 in /  1016.8 hPa SW 9.7 mph /  15.6 km/h 9.7 mph /  15.6 km/h 51 % 0 in /  0.0 mm
15:39 82.8 °F /  28.2 °C 62.2 °F /  16.8 °C 30 in /  1016.8 hPa SSW 6.9 mph /  11.1 km/h 6.9 mph /  11.1 km/h 50 % 0 in /  0.0 mm
15:44 82.9 °F /  28.3 °C 62.4 °F /  16.9 °C 30 in /  1016.8 hPa SW 8.1 mph /  13.0 km/h 8.1 mph /  13.0 km/h 50 % 0 in /  0.0 mm
15:49 84.2 °F /  29.0 °C 63 °F /  17.2 °C 30 in /  1016.8 hPa SW 6.2 mph /  10.0 km/h 6.2 mph /  10.0 km/h 49 % 0 in /  0.0 mm
15:54 83.7 °F /  28.7 °C 63 °F /  17.2 °C 30 in /  1016.8 hPa WSW 5.8 mph /  9.3 km/h 5.8 mph /  9.3 km/h 50 % 0 in /  0.0 mm
15:59 82.6 °F /  28.1 °C 62.1 °F /  16.7 °C 30 in /  1016.8 hPa SW 5.8 mph /  9.3 km/h 5.8 mph /  9.3 km/h 50 % 0 in /  0.0 mm
16:04 82.2 °F /  27.9 °C 61.7 °F /  16.5 °C 30 in /  1016.8 hPa SW 9.7 mph /  15.6 km/h 9.7 mph /  15.6 km/h 50 % 0 in /  0.0 mm
16:09 82.2 °F /  27.9 °C 62.2 °F /  16.8 °C 30 in /  1016.8 hPa ESE 5.8 mph /  9.3 km/h 5.8 mph /  9.3 km/h 51 % 0 in /  0.0 mm
16:14 82.6 °F /  28.1 °C 62.1 °F /  16.7 °C 30 in /  1016.8 hPa WSW 11.5 mph /  18.5 km/h 11.5 mph /  18.5 km/h 50 % 0 in /  0.0 mm
16:19 83.1 °F /  28.4 °C 62.6 °F /  17.0 °C 30 in /  1015.8 hPa WSW 5.8 mph /  9.3 km/h 5.8 mph /  9.3 km/h 50 % 0 in /  0.0 mm
16:24 81.5 °F /  27.5 °C 61.2 °F /  16.2 °C 30 in /  1015.8 hPa WSW 10.4 mph /  16.7 km/h 10.4 mph /  16.7 km/h 50 % 0 in /  0.0 mm
16:29 81.7 °F /  27.6 °C 61.9 °F /  16.6 °C 30 in /  1015.8 hPa SW 7.8 mph /  12.6 km/h 7.8 mph /  12.6 km/h 51 % 0 in /  0.0 mm
16:34 81.5 °F /  27.5 °C 61.5 °F /  16.4 °C 30 in /  1015.8 hPa SW 12.7 mph /  20.4 km/h 12.7 mph /  20.4 km/h 51 % 0 in /  0.0 mm
16:39 80.6 °F /  27.0 °C 60.8 °F /  16.0 °C 30 in /  1015.8 hPa South 9.2 mph /  14.8 km/h 9.2 mph /  14.8 km/h 51 % 0 in /  0.0 mm
16:44 81 °F /  27.2 °C 61.2 °F /  16.2 °C 30 in /  1015.8 hPa SSE 5.8 mph /  9.3 km/h 5.8 mph /  9.3 km/h 51 % 0 in /  0.0 mm
16:49 80.6 °F /  27.0 °C 60.8 °F /  16.0 °C 30 in /  1015.8 hPa SSW 8.1 mph /  13.0 km/h 8.5 mph /  13.7 km/h 51 % 0 in /  0.0 mm
16:54 80.8 °F /  27.1 °C 61.5 °F /  16.4 °C 30 in /  1015.8 hPa SSW 6.9 mph /  11.1 km/h 6.9 mph /  11.1 km/h 52 % 0 in /  0.0 mm
16:59 81.7 °F /  27.6 °C 61.9 °F /  16.6 °C 30 in /  1015.8 hPa SW 5.8 mph /  9.3 km/h 5.8 mph /  9.3 km/h 51 % 0 in /  0.0 mm
17:04 81 °F /  27.2 °C 61.2 °F /  16.2 °C 30 in /  1015.8 hPa SSW 10.7 mph /  17.2 km/h 10.7 mph /  17.2 km/h 51 % 0 in /  0.0 mm
17:09 80.4 °F /  26.9 °C 61.2 °F /  16.2 °C 30 in /  1015.8 hPa SW 10.4 mph /  16.7 km/h 10.4 mph /  16.7 km/h 52 % 0 in /  0.0 mm
17:14 80.8 °F /  27.1 °C 61 °F /  16.1 °C 30 in /  1015.8 hPa West 9.2 mph /  14.8 km/h 9.2 mph /  14.8 km/h 51 % 0 in /  0.0 mm
17:19 81.3 °F /  27.4 °C 62.1 °F /  16.7 °C 30 in /  1016.8 hPa SSW 10.5 mph /  16.9 km/h 10.5 mph /  16.9 km/h 52 % 0 in /  0.0 mm
17:24 80.4 °F /  26.9 °C 61.7 °F /  16.5 °C 30 in /  1016.8 hPa SSW 9.2 mph /  14.8 km/h 9.2 mph /  14.8 km/h 53 % 0 in /  0.0 mm
17:29 80.6 °F /  27.0 °C 60.8 °F /  16.0 °C 30 in /  1016.8 hPa SW 9.2 mph /  14.8 km/h 9.2 mph /  14.8 km/h 51 % 0 in /  0.0 mm
17:34 80.2 °F /  26.8 °C 61 °F /  16.1 °C 30 in /  1015.8 hPa SW 6.9 mph /  11.1 km/h 6.9 mph /  11.1 km/h 52 % 0 in /  0.0 mm
17:39 80.6 °F /  27.0 °C 60.8 °F /  16.0 °C 30 in /  1015.8 hPa SW 8.1 mph /  13.0 km/h 8.1 mph /  13.0 km/h 51 % 0 in /  0.0 mm
17:44 79.7 °F /  26.5 °C 60.4 °F /  15.8 °C 30 in /  1015.8 hPa SW 6.9 mph /  11.1 km/h 6.9 mph /  11.1 km/h 52 % 0 in /  0.0 mm
17:49 80.6 °F /  27.0 °C 61.3 °F /  16.3 °C 30 in /  1015.8 hPa SW 5.8 mph /  9.3 km/h 5.8 mph /  9.3 km/h 52 % 0 in /  0.0 mm
17:54 79.9 °F /  26.6 °C 60.6 °F /  15.9 °C 30 in /  1015.8 hPa SW 7.6 mph /  12.2 km/h 7.6 mph /  12.2 km/h 52 % 0 in /  0.0 mm
17:59 80.4 °F /  26.9 °C 61.2 °F /  16.2 °C 30 in /  1015.8 hPa SW 6.9 mph /  11.1 km/h 6.9 mph /  11.1 km/h 52 % 0 in /  0.0 mm
18:04 81 °F /  27.2 °C 61.7 °F /  16.5 °C 30 in /  1014.8 hPa WSW 4.6 mph /  7.4 km/h 4.6 mph /  7.4 km/h 52 % 0 in /  0.0 mm
18:09 81 °F /  27.2 °C 61.2 °F /  16.2 °C 30 in /  1014.8 hPa South 8.1 mph /  13.0 km/h 8.1 mph /  13.0 km/h 51 % 0 in /  0.0 mm
18:19 79.5 °F /  26.4 °C 60.4 °F /  15.8 °C 30 in /  1015.8 hPa SSW 8.1 mph /  13.0 km/h 8.1 mph /  13.0 km/h 52 % 0 in /  0.0 mm
18:24 79.7 °F /  26.5 °C 60.4 °F /  15.8 °C 30 in /  1015.8 hPa South 4.6 mph /  7.4 km/h 4.6 mph /  7.4 km/h 52 % 0 in /  0.0 mm
18:29 79.7 °F /  26.5 °C 60.4 °F /  15.8 °C 30 in /  1015.8 hPa WSW 6.9 mph /  11.1 km/h 6.9 mph /  11.1 km/h 52 % 0 in /  0.0 mm
18:34 79 °F /  26.1 °C 59.9 °F /  15.5 °C 30 in /  1014.8 hPa SW 8.1 mph /  13.0 km/h 8.1 mph /  13.0 km/h 52 % 0 in /  0.0 mm
18:39 79.3 °F /  26.3 °C 60.3 °F /  15.7 °C 30 in /  1014.8 hPa West 7.8 mph /  12.6 km/h 7.8 mph /  12.6 km/h 52 % 0 in /  0.0 mm
18:44 79.3 °F /  26.3 °C 60.3 °F /  15.7 °C 30 in /  1014.8 hPa SSW 5.9 mph /  9.5 km/h 5.9 mph /  9.5 km/h 52 % 0 in /  0.0 mm
18:49 79.2 °F /  26.2 °C 60.1 °F /  15.6 °C 30 in /  1014.8 hPa SW 2.3 mph /  3.7 km/h 2.9 mph /  4.7 km/h 52 % 0 in /  0.0 mm
18:54 78.6 °F /  25.9 °C 59.5 °F /  15.3 °C 30 in /  1014.8 hPa SW 9.2 mph /  14.8 km/h 9.2 mph /  14.8 km/h 52 % 0 in /  0.0 mm
18:59 78.8 °F /  26.0 °C 59.7 °F /  15.4 °C 30 in /  1014.8 hPa SW 3.5 mph /  5.6 km/h 3.5 mph /  5.6 km/h 52 % 0 in /  0.0 mm
19:04 79.2 °F /  26.2 °C 60.1 °F /  15.6 °C 30 in /  1014.8 hPa WSW 3.6 mph /  5.8 km/h 3.6 mph /  5.8 km/h 52 % 0 in /  0.0 mm
19:09 78.8 °F /  26.0 °C 59.7 °F /  15.4 °C 30 in /  1014.8 hPa SW 5.8 mph /  9.3 km/h 5.8 mph /  9.3 km/h 52 % 0 in /  0.0 mm
19:14 77.7 °F /  25.4 °C 58.1 °F /  14.5 °C 30 in /  1014.8 hPa SW 6.9 mph /  11.1 km/h 6.9 mph /  11.1 km/h 51 % 0 in /  0.0 mm
19:15 77.7 °F /  25.4 °C 58.6 °F /  14.8 °C 30 in /  1014.8 hPa SSW 5.8 mph /  9.3 km/h 5.8 mph /  9.3 km/h 52 % 0 in /  0.0 mm
19:20 77.5 °F /  25.3 °C 58.5 °F /  14.7 °C 29.9 in /  1013.8 hPa WSW 4.6 mph /  7.4 km/h 4.6 mph /  7.4 km/h 52 % 0 in /  0.0 mm
19:25 77.4 °F /  25.2 °C 58.5 °F /  14.7 °C 29.9 in /  1013.8 hPa SSW 5.8 mph /  9.3 km/h 5.8 mph /  9.3 km/h 52 % 0 in /  0.0 mm
19:30 76.8 °F /  24.9 °C 58.5 °F /  14.7 °C 29.9 in /  1013.8 hPa SW 6.7 mph /  10.8 km/h 6.7 mph /  10.8 km/h 53 % 0 in /  0.0 mm
19:35 77 °F /  25.0 °C 57.9 °F /  14.4 °C 29.9 in /  1013.8 hPa SSW 8.1 mph /  13.0 km/h 8.1 mph /  13.0 km/h 52 % 0 in /  0.0 mm
19:40 76.8 °F /  24.9 °C 58.5 °F /  14.7 °C 29.9 in /  1013.8 hPa South 5.9 mph /  9.5 km/h 5.9 mph /  9.5 km/h 53 % 0 in /  0.0 mm
19:45 76.1 °F /  24.5 °C 58.3 °F /  14.6 °C 29.9 in /  1013.8 hPa SE 8.1 mph /  13.0 km/h 8.1 mph /  13.0 km/h 54 % 0 in /  0.0 mm
19:50 75.7 °F /  24.3 °C 57.9 °F /  14.4 °C 29.9 in /  1013.8 hPa WSW 8.5 mph /  13.7 km/h 8.5 mph /  13.7 km/h 54 % 0 in /  0.0 mm
19:55 75.2 °F /  24.0 °C 57.9 °F /  14.4 °C 29.9 in /  1013.8 hPa SW 5.8 mph /  9.3 km/h 5.8 mph /  9.3 km/h 55 % 0 in /  0.0 mm
20:00 75.2 °F /  24.0 °C 57.9 °F /  14.4 °C 29.9 in /  1013.8 hPa SW 6.4 mph /  10.3 km/h 6.4 mph /  10.3 km/h 55 % 0 in /  0.0 mm
20:05 74.8 °F /  23.8 °C 58.1 °F /  14.5 °C 29.9 in /  1013.8 hPa WSW 7.1 mph /  11.4 km/h 7.1 mph /  11.4 km/h 56 % 0 in /  0.0 mm
20:10 74.5 °F /  23.6 °C 57.7 °F /  14.3 °C 29.9 in /  1013.8 hPa WSW 3.5 mph /  5.6 km/h 3.5 mph /  5.6 km/h 56 % 0 in /  0.0 mm
20:15 74.1 °F /  23.4 °C 57.4 °F /  14.1 °C 29.9 in /  1013.8 hPa WSW 7.6 mph /  12.2 km/h 7.6 mph /  12.2 km/h 56 % 0 in /  0.0 mm
20:20 73.6 °F /  23.1 °C 57.4 °F /  14.1 °C 29.9 in /  1013.8 hPa South 6.9 mph /  11.1 km/h 6.9 mph /  11.1 km/h 57 % 0 in /  0.0 mm
20:25 73 °F /  22.8 °C 56.8 °F /  13.8 °C 29.9 in /  1013.8 hPa SW 5.8 mph /  9.3 km/h 5.8 mph /  9.3 km/h 57 % 0 in /  0.0 mm
20:30 72.7 °F /  22.6 °C 57 °F /  13.9 °C 29.9 in /  1013.8 hPa SSW 6.2 mph /  10.0 km/h 6.2 mph /  10.0 km/h 58 % 0 in /  0.0 mm
20:35 72.1 °F /  22.3 °C 56.5 °F /  13.6 °C 29.9 in /  1013.8 hPa SW 8.1 mph /  13.0 km/h 8.1 mph /  13.0 km/h 58 % 0 in /  0.0 mm
20:40 72 °F /  22.2 °C 56.8 °F /  13.8 °C 29.9 in /  1013.8 hPa WSW 4.9 mph /  7.9 km/h 4.9 mph /  7.9 km/h 59 % 0 in /  0.0 mm
20:45 71.6 °F /  22.0 °C 56.5 °F /  13.6 °C 29.9 in /  1013.8 hPa WSW 6.9 mph /  11.1 km/h 6.9 mph /  11.1 km/h 59 % 0 in /  0.0 mm
20:50 71.2 °F /  21.8 °C 56.7 °F /  13.7 °C 29.9 in /  1013.8 hPa SW 9.2 mph /  14.8 km/h 9.2 mph /  14.8 km/h 60 % 0 in /  0.0 mm
20:55 71.1 °F /  21.7 °C 56.8 °F /  13.8 °C 29.9 in /  1013.8 hPa WSW 5.8 mph /  9.3 km/h 5.8 mph /  9.3 km/h 61 % 0 in /  0.0 mm
21:00 70.7 °F /  21.5 °C 56.7 °F /  13.7 °C 29.9 in /  1013.8 hPa SW 3.5 mph /  5.6 km/h 3.6 mph /  5.8 km/h 61 % 0 in /  0.0 mm
21:05 70.5 °F /  21.4 °C 56.8 °F /  13.8 °C 29.9 in /  1013.8 hPa West 5.8 mph /  9.3 km/h 5.8 mph /  9.3 km/h 62 % 0 in /  0.0 mm
21:06 70.5 °F /  21.4 °C 56.8 °F /  13.8 °C 29.9 in /  1013.8 hPa SW 5.8 mph /  9.3 km/h 5.8 mph /  9.3 km/h 62 % 0 in /  0.0 mm
21:11 70.2 °F /  21.2 °C 56.5 °F /  13.6 °C 29.9 in /  1013.8 hPa WSW 5.4 mph /  8.7 km/h 5.4 mph /  8.7 km/h 62 % 0 in /  0.0 mm
21:15 64.8 °F /  18.2 °C 59.2 °F /  15.1 °C 30 in /  1015.8 hPa Calm   1 mph /  1.6 km/h 82 % 0 in /  0.0 mm
21:16 69.8 °F /  21.0 °C 56.1 °F /  13.4 °C 29.9 in /  1013.8 hPa SW 5.8 mph /  9.3 km/h 5.8 mph /  9.3 km/h 62 % 0 in /  0.0 mm
21:21 69.6 °F /  20.9 °C 56.5 °F /  13.6 °C 29.9 in /  1013.8 hPa WSW 6.9 mph /  11.1 km/h 6.9 mph /  11.1 km/h 63 % 0 in /  0.0 mm
21:25 64.9 °F /  18.3 °C 59.4 °F /  15.2 °C 30 in /  1016.8 hPa WSW 1 mph /  1.6 km/h 3 mph /  4.8 km/h 82 % 0 in /  0.0 mm
21:26 69.3 °F /  20.7 °C 56.1 °F /  13.4 °C 29.9 in /  1013.8 hPa SSW 5.8 mph /  9.3 km/h 5.8 mph /  9.3 km/h 63 % 0 in /  0.0 mm
21:31 69.1 °F /  20.6 °C 56.5 °F /  13.6 °C 29.9 in /  1013.8 hPa SW 8.5 mph /  13.7 km/h 8.5 mph /  13.7 km/h 64 % 0 in /  0.0 mm
21:35 64.8 °F /  18.2 °C 59.2 °F /  15.1 °C 30 in /  1015.8 hPa West 1 mph /  1.6 km/h 2 mph /  3.2 km/h 82 % 0 in /  0.0 mm
21:36 68.7 °F /  20.4 °C 56.5 °F /  13.6 °C 29.9 in /  1013.8 hPa SSW 4.6 mph /  7.4 km/h 4.6 mph /  7.4 km/h 65 % 0 in /  0.0 mm
21:41 68.5 °F /  20.3 °C 56.7 °F /  13.7 °C 29.9 in /  1013.8 hPa WSW 6.9 mph /  11.1 km/h 6.9 mph /  11.1 km/h 66 % 0 in /  0.0 mm
21:45 64.9 °F /  18.3 °C 59 °F /  15.0 °C 30 in /  1015.8 hPa West 3 mph /  4.8 km/h 3 mph /  4.8 km/h 81 % 0 in /  0.0 mm
21:46 68.4 °F /  20.2 °C 56.7 °F /  13.7 °C 29.9 in /  1013.8 hPa SW 5.8 mph /  9.3 km/h 5.8 mph /  9.3 km/h 66 % 0 in /  0.0 mm
21:51 68.2 °F /  20.1 °C 56.8 °F /  13.8 °C 30 in /  1014.8 hPa SSW 6.2 mph /  10.0 km/h 6.2 mph /  10.0 km/h 67 % 0 in /  0.0 mm
21:55 64.9 °F /  18.3 °C 59 °F /  15.0 °C 30 in /  1016.8 hPa West 2 mph /  3.2 km/h 3 mph /  4.8 km/h 81 % 0 in /  0.0 mm
21:56 68 °F /  20.0 °C 56.7 °F /  13.7 °C 30 in /  1014.8 hPa SW 4.6 mph /  7.4 km/h 4.6 mph /  7.4 km/h 67 % 0 in /  0.0 mm
22:01 68 °F /  20.0 °C 57 °F /  13.9 °C 30 in /  1014.8 hPa SW 4.6 mph /  7.4 km/h 4.6 mph /  7.4 km/h 68 % 0 in /  0.0 mm
22:05 64.9 °F /  18.3 °C 59.4 °F /  15.2 °C 30 in /  1016.8 hPa WSW 1 mph /  1.6 km/h 3 mph /  4.8 km/h 82 % 0 in /  0.0 mm
22:06 67.8 °F /  19.9 °C 57.7 °F /  14.3 °C 30 in /  1014.8 hPa SW 5.8 mph /  9.3 km/h 5.8 mph /  9.3 km/h 70 % 0 in /  0.0 mm
22:11 67.6 °F /  19.8 °C 57.9 °F /  14.4 °C 30 in /  1014.8 hPa SW 6.9 mph /  11.1 km/h 6.9 mph /  11.1 km/h 71 % 0 in /  0.0 mm
22:15 64.8 °F /  18.2 °C 58.8 °F /  14.9 °C 30 in /  1016.8 hPa WSW 1 mph /  1.6 km/h 2 mph /  3.2 km/h 81 % 0 in /  0.0 mm
22:16 67.5 °F /  19.7 °C 57.7 °F /  14.3 °C 30 in /  1014.8 hPa SW 4.6 mph /  7.4 km/h 4.6 mph /  7.4 km/h 71 % 0 in /  0.0 mm
22:25 64.4 °F /  18.0 °C 58.5 °F /  14.7 °C 30 in /  1015.8 hPa Calm     81 % 0 in /  0.0 mm
22:26 67.1 °F /  19.5 °C 57.7 °F /  14.3 °C 30 in /  1015.8 hPa SW 3.5 mph /  5.6 km/h 3.5 mph /  5.6 km/h 72 % 0 in /  0.0 mm
22:31 66.9 °F /  19.4 °C 57.6 °F /  14.2 °C 30 in /  1015.8 hPa SSW 3.1 mph /  5.0 km/h 3.3 mph /  5.3 km/h 72 % 0 in /  0.0 mm
22:35 64 °F /  17.8 °C 58.5 °F /  14.7 °C 30 in /  1015.8 hPa Calm   3 mph /  4.8 km/h 82 % 0 in /  0.0 mm
22:36 66.7 °F /  19.3 °C 57.7 °F /  14.3 °C 30 in /  1014.8 hPa West 3.5 mph /  5.6 km/h 3.5 mph /  5.6 km/h 73 % 0 in /  0.0 mm
22:41 66.6 °F /  19.2 °C 57.6 °F /  14.2 °C 30 in /  1014.8 hPa WSW 4.9 mph /  7.9 km/h 4.9 mph /  7.9 km/h 73 % 0 in /  0.0 mm
22:45 63.7 °F /  17.6 °C 58.1 °F /  14.5 °C 30 in /  1015.8 hPa SW 2 mph /  3.2 km/h 2 mph /  3.2 km/h 82 % 0 in /  0.0 mm
22:46 66.4 °F /  19.1 °C 57.7 °F /  14.3 °C 30 in /  1014.8 hPa SW 4 mph /  6.4 km/h 4 mph /  6.4 km/h 74 % 0 in /  0.0 mm
22:51 66.4 °F /  19.1 °C 57.7 °F /  14.3 °C 30 in /  1015.8 hPa WSW 4.6 mph /  7.4 km/h 4.6 mph /  7.4 km/h 74 % 0 in /  0.0 mm
22:55 63.3 °F /  17.4 °C 58.1 °F /  14.5 °C 30 in /  1015.8 hPa Calm     83 % 0 in /  0.0 mm
22:56 66.2 °F /  19.0 °C 57.7 °F /  14.3 °C 30 in /  1015.8 hPa SW 4.6 mph /  7.4 km/h 4.6 mph /  7.4 km/h 74 % 0 in /  0.0 mm
23:01 66.2 °F /  19.0 °C 57.9 °F /  14.4 °C 30 in /  1015.8 hPa SW 4.6 mph /  7.4 km/h 4.6 mph /  7.4 km/h 75 % 0 in /  0.0 mm
23:05 63.3 °F /  17.4 °C 58.1 °F /  14.5 °C 30 in /  1015.8 hPa WSW 2 mph /  3.2 km/h 2 mph /  3.2 km/h 83 % 0 in /  0.0 mm
23:06 66 °F /  18.9 °C 58.3 °F /  14.6 °C 30 in /  1014.8 hPa SW 2.3 mph /  3.7 km/h 3.1 mph /  5.0 km/h 76 % 0 in /  0.0 mm
23:11 66 °F /  18.9 °C 58.6 °F /  14.8 °C 30 in /  1014.8 hPa South 3.5 mph /  5.6 km/h 3.5 mph /  5.6 km/h 77 % 0 in /  0.0 mm
23:15 63 °F /  17.2 °C 57.7 °F /  14.3 °C 30 in /  1015.8 hPa Calm   1 mph /  1.6 km/h 83 % 0 in /  0.0 mm
23:16 65.8 °F /  18.8 °C 58.5 °F /  14.7 °C 30 in /  1014.8 hPa SSW 2.6 mph /  4.2 km/h 2.6 mph /  4.2 km/h 77 % 0 in /  0.0 mm
23:21 65.7 °F /  18.7 °C 58.3 °F /  14.6 °C 30 in /  1015.8 hPa SSW 2.3 mph /  3.7 km/h 2.3 mph /  3.7 km/h 77 % 0 in /  0.0 mm
23:25 62.8 °F /  17.1 °C 57.6 °F /  14.2 °C 30 in /  1015.8 hPa Calm   2 mph /  3.2 km/h 83 % 0 in /  0.0 mm
23:26 65.7 °F /  18.7 °C 58.3 °F /  14.6 °C 30 in /  1015.8 hPa SSW 3.5 mph /  5.6 km/h 3.5 mph /  5.6 km/h 77 % 0 in /  0.0 mm
23:31 65.5 °F /  18.6 °C 58.1 °F /  14.5 °C 30 in /  1015.8 hPa South 4.6 mph /  7.4 km/h 4.6 mph /  7.4 km/h 77 % 0 in /  0.0 mm
23:35 62.4 °F /  16.9 °C 57.6 °F /  14.2 °C 30 in /  1015.8 hPa SW 1 mph /  1.6 km/h 3 mph /  4.8 km/h 84 % 0 in /  0.0 mm
23:36 65.5 °F /  18.6 °C 58.1 °F /  14.5 °C 30 in /  1015.8 hPa SW 4.6 mph /  7.4 km/h 4.6 mph /  7.4 km/h 77 % 0 in /  0.0 mm
23:41 65.3 °F /  18.5 °C 58.3 °F /  14.6 °C 30 in /  1015.8 hPa SW 4.6 mph /  7.4 km/h 4.6 mph /  7.4 km/h 78 % 0 in /  0.0 mm
23:45 62.6 °F /  17.0 °C 57 °F /  13.9 °C 30 in /  1015.8 hPa WSW 2 mph /  3.2 km/h 2 mph /  3.2 km/h 82 % 0 in /  0.0 mm
23:46 65.3 °F /  18.5 °C 58.3 °F /  14.6 °C 30 in /  1015.8 hPa WSW 4.6 mph /  7.4 km/h 4.6 mph /  7.4 km/h 78 % 0 in /  0.0 mm
23:51 65.1 °F /  18.4 °C 58.1 °F /  14.5 °C 30 in /  1015.8 hPa SW 4.6 mph /  7.4 km/h 4.6 mph /  7.4 km/h 78 % 0 in /  0.0 mm
23:55 62.8 °F /  17.1 °C 57.2 °F /  14.0 °C 30 in /  1015.8 hPa WSW 2 mph /  3.2 km/h 3 mph /  4.8 km/h 82 % 0 in /  0.0 mm
23:56 65.1 °F /  18.4 °C 58.1 °F /  14.5 °C 30 in /  1015.8 hPa SW 3.5 mph /  5.6 km/h 3.5 mph /  5.6 km/h 78 % 0 in /  0.0 mm
Meteo Sesrovires
Elogis d' Weather Underground - 3.5 mb

Guio original per  Jim McMurry - jmcmurry@mwt.net Adaptat per a la plantilla per  Wim van der Kuil - Leuven-Template.eu

Trobareu la nostra informacio del temps tambe a:

Weather Underground

AWEKAS